createdAt,value
2018-09-21T00:00:16.438Z,8.83
2018-09-21T00:02:45.314Z,8.17
2018-09-21T00:05:14.834Z,8.27
2018-09-21T00:07:43.739Z,8.63
2018-09-21T00:10:12.654Z,7.60
2018-09-21T00:12:42.563Z,7.80
2018-09-21T00:15:11.996Z,7.77
2018-09-21T00:17:40.863Z,8.70
2018-09-21T00:20:09.747Z,8.47
2018-09-21T00:22:38.642Z,8.00
2018-09-21T00:25:07.872Z,7.93
2018-09-21T00:27:37.063Z,8.63
2018-09-21T00:30:06.314Z,8.20
2018-09-21T00:32:35.167Z,8.10
2018-09-21T00:35:04.362Z,8.10
2018-09-21T00:37:33.284Z,8.53
2018-09-21T00:40:02.188Z,8.90
2018-09-21T00:42:31.094Z,7.90
2018-09-21T00:45:00.045Z,8.10
2018-09-21T00:47:29.117Z,8.73
2018-09-21T00:49:58.350Z,8.17
2018-09-21T00:52:27.215Z,9.00
2018-09-21T00:54:56.138Z,7.97
2018-09-21T00:57:25.368Z,8.20
2018-09-21T00:59:54.370Z,8.67
2018-09-21T01:02:23.603Z,8.40
2018-09-21T01:04:52.502Z,7.87
2018-09-21T01:07:21.467Z,8.00
2018-09-21T01:09:50.357Z,7.63
2018-09-21T01:12:19.715Z,8.40
2018-09-21T01:14:48.623Z,8.83
2018-09-21T01:17:17.815Z,9.20
2018-09-21T01:19:46.777Z,8.10
2018-09-21T01:22:15.687Z,8.90
2018-09-21T01:24:44.615Z,8.60
2018-09-21T01:27:15.187Z,8.70
2018-09-21T01:29:45.094Z,8.90
2018-09-21T01:32:14.092Z,8.57
2018-09-21T01:34:43.655Z,9.00
2018-09-21T01:37:12.571Z,8.90
2018-09-21T01:39:41.442Z,8.53
2018-09-21T01:42:10.603Z,8.30
2018-09-21T01:44:40.238Z,9.10
2018-09-21T01:47:09.375Z,9.00
2018-09-21T01:49:38.598Z,8.70
2018-09-21T01:52:07.559Z,8.80
2018-09-21T01:54:36.775Z,8.80
2018-09-21T01:57:05.660Z,8.37
2018-09-21T01:59:34.541Z,9.03
2018-09-21T02:02:03.431Z,8.73
2018-09-21T02:04:39.498Z,8.73
2018-09-21T02:07:09.903Z,9.30
2018-09-21T02:09:39.350Z,8.60
2018-09-21T02:12:08.455Z,8.80
2018-09-21T02:14:37.346Z,8.43
2018-09-21T02:17:06.277Z,8.87
2018-09-21T02:19:35.396Z,9.60
2018-09-21T02:22:04.287Z,9.43
2018-09-21T02:24:33.183Z,9.40
2018-09-21T02:27:02.051Z,8.97
2018-09-21T02:29:30.946Z,9.13
2018-09-21T02:31:59.832Z,8.70
2018-09-21T02:34:28.740Z,9.17
2018-09-21T02:36:58.185Z,8.20
2018-09-21T02:39:27.088Z,8.20
2018-09-21T02:41:55.971Z,10.00
2018-09-21T02:44:24.860Z,9.27
2018-09-21T02:46:54.088Z,9.10
2018-09-21T02:49:23.030Z,8.33
2018-09-21T02:51:51.936Z,9.00
2018-09-21T02:54:20.819Z,8.90
2018-09-21T02:56:50.531Z,9.30
2018-09-21T02:59:19.433Z,10.60
2018-09-21T03:01:48.336Z,9.57
2018-09-21T03:04:17.835Z,8.60
2018-09-21T03:06:47.017Z,9.60
2018-09-21T03:09:15.928Z,10.23
2018-09-21T03:11:44.842Z,9.33
2018-09-21T03:14:13.723Z,8.37
2018-09-21T03:16:44.020Z,8.40
2018-09-21T03:19:13.247Z,9.40
2018-09-21T03:21:42.699Z,9.20
2018-09-21T03:24:12.159Z,9.37
2018-09-21T03:26:41.304Z,8.03
2018-09-21T03:29:10.220Z,9.50
2018-09-21T03:31:39.089Z,8.70
2018-09-21T03:34:07.949Z,8.60
2018-09-21T03:36:36.850Z,8.87
2018-09-21T03:39:07.520Z,9.60
2018-09-21T03:41:36.476Z,8.73
2018-09-21T03:44:05.362Z,8.60
2018-09-21T03:46:34.301Z,9.13
2018-09-21T03:49:03.247Z,9.13
2018-09-21T03:51:32.174Z,9.53
2018-09-21T03:54:01.364Z,9.03
2018-09-21T03:56:30.254Z,9.03
2018-09-21T03:58:59.150Z,8.77
2018-09-21T04:01:28.088Z,9.00
2018-09-21T04:03:58.172Z,9.70
2018-09-21T04:06:27.064Z,9.70
2018-09-21T04:08:55.990Z,9.00
2018-09-21T04:11:25.138Z,8.40
2018-09-21T04:13:54.030Z,8.90
2018-09-21T04:16:23.273Z,10.10
2018-09-21T04:18:52.389Z,9.90
2018-09-21T04:21:21.294Z,9.13
2018-09-21T04:23:50.227Z,8.40
2018-09-21T04:26:19.141Z,9.07
2018-09-21T04:28:48.295Z,8.90
2018-09-21T04:31:17.340Z,9.00
2018-09-21T04:33:46.275Z,8.80
2018-09-21T04:36:15.279Z,8.90
2018-09-21T04:38:44.359Z,9.70
2018-09-21T04:41:13.830Z,8.60
2018-09-21T04:43:42.760Z,9.10
2018-09-21T04:46:11.659Z,10.43
2018-09-21T04:48:46.187Z,10.10
2018-09-21T04:51:15.731Z,9.97
2018-09-21T04:53:44.849Z,9.80
2018-09-21T04:56:14.627Z,8.67
2018-09-21T04:58:43.826Z,8.83
2018-09-21T05:01:13.039Z,8.97
2018-09-21T05:03:41.940Z,9.03
2018-09-21T05:06:10.819Z,8.77
2018-09-21T05:08:39.712Z,10.03
2018-09-21T05:11:08.675Z,9.87
2018-09-21T05:13:37.847Z,9.00
2018-09-21T05:16:07.372Z,9.17
2018-09-21T05:18:36.268Z,9.53
2018-09-21T05:21:05.159Z,10.40
2018-09-21T05:23:34.592Z,9.93
2018-09-21T05:26:03.482Z,9.07
2018-09-21T05:28:32.576Z,9.30
2018-09-21T05:31:01.491Z,8.57
2018-09-21T05:33:30.514Z,7.80
2018-09-21T05:35:59.803Z,8.30
2018-09-21T05:38:28.915Z,9.10
2018-09-21T05:40:57.860Z,9.07
2018-09-21T05:43:27.038Z,9.03
2018-09-21T05:45:56.223Z,8.43
2018-09-21T05:48:25.442Z,8.67
2018-09-21T05:50:54.498Z,9.40
2018-09-21T05:53:23.463Z,8.57
2018-09-21T05:55:52.399Z,8.63
2018-09-21T05:58:21.395Z,9.17
2018-09-21T06:00:50.288Z,9.70
2018-09-21T06:03:19.389Z,9.33
2018-09-21T06:05:48.300Z,8.73
2018-09-21T06:08:17.313Z,8.90
2018-09-21T06:10:46.299Z,9.07
2018-09-21T06:13:16.023Z,8.97
2018-09-21T06:15:45.186Z,8.20
2018-09-21T06:18:14.071Z,9.07
2018-09-21T06:20:43.475Z,9.60
2018-09-21T06:23:12.620Z,9.40
2018-09-21T06:25:41.548Z,8.63
2018-09-21T06:28:10.464Z,8.43
2018-09-21T06:30:39.376Z,8.57
2018-09-21T06:33:08.511Z,8.33
2018-09-21T06:35:37.732Z,7.80
2018-09-21T06:38:06.643Z,8.50
2018-09-21T06:40:36.031Z,8.50
2018-09-21T06:43:04.931Z,8.50
2018-09-21T06:45:34.132Z,8.80
2018-09-21T06:48:03.599Z,8.40
2018-09-21T06:50:32.735Z,8.10
2018-09-21T06:53:01.635Z,7.30
2018-09-21T06:55:30.619Z,8.10
2018-09-21T06:57:59.703Z,8.03
2018-09-21T07:00:28.685Z,8.13
2018-09-21T07:02:57.691Z,8.70
2018-09-21T07:05:26.902Z,8.73
2018-09-21T07:07:56.025Z,8.70
2018-09-21T07:10:24.949Z,9.10
2018-09-21T07:12:53.984Z,8.40
2018-09-21T07:15:23.022Z,9.03
2018-09-21T07:17:53.054Z,8.27
2018-09-21T07:20:22.329Z,8.40
2018-09-21T07:22:52.191Z,8.37
2018-09-21T07:25:21.378Z,8.20
2018-09-21T07:27:50.315Z,8.30
2018-09-21T07:30:19.538Z,8.50
2018-09-21T07:32:48.489Z,7.80
2018-09-21T07:35:17.413Z,8.23
2018-09-21T07:37:46.327Z,8.60
2018-09-21T07:40:15.283Z,8.27
2018-09-21T07:42:44.462Z,8.00
2018-09-21T07:45:13.579Z,8.00
2018-09-21T07:47:42.620Z,8.23
2018-09-21T07:50:11.935Z,8.10
2018-09-21T07:52:41.033Z,7.40
2018-09-21T07:55:10.184Z,7.80
2018-09-21T07:57:39.206Z,7.40
2018-09-21T08:00:08.415Z,7.30
2018-09-21T08:02:37.331Z,6.80
2018-09-21T08:05:06.394Z,7.43
2018-09-21T08:07:35.277Z,7.10
2018-09-21T08:10:04.255Z,6.50
2018-09-21T08:12:33.419Z,6.90
2018-09-21T08:15:02.678Z,6.40
2018-09-21T08:17:31.819Z,6.57
2018-09-21T08:20:00.973Z,6.60
2018-09-21T08:22:30.229Z,6.30
2018-09-21T08:24:59.267Z,7.30
2018-09-21T08:27:28.783Z,6.37
2018-09-21T08:29:57.756Z,6.80
2018-09-21T08:32:26.945Z,6.63
2018-09-21T08:34:56.163Z,6.63
2018-09-21T08:37:25.607Z,6.53
2018-09-21T08:39:54.425Z,5.60
2018-09-21T08:42:23.399Z,6.63
2018-09-21T08:44:59.619Z,6.43
2018-09-21T08:47:28.523Z,6.53
2018-09-21T08:49:57.548Z,6.50
2018-09-21T08:52:26.616Z,6.30
2018-09-21T08:54:58.801Z,5.80
2018-09-21T08:57:27.695Z,6.63
2018-09-21T08:59:56.892Z,6.23
2018-09-21T09:02:25.780Z,6.37
2018-09-21T09:04:56.026Z,6.30
2018-09-21T09:07:24.980Z,6.20
2018-09-21T09:09:54.069Z,6.40
2018-09-21T09:12:24.755Z,6.60
2018-09-21T09:14:54.254Z,6.67
2018-09-21T09:17:23.397Z,6.37
2018-09-21T09:19:52.947Z,6.87
2018-09-21T09:22:22.202Z,5.33
2018-09-21T09:24:51.705Z,5.87
2018-09-21T09:27:20.586Z,5.90
2018-09-21T09:29:49.473Z,5.53
2018-09-21T09:32:18.401Z,5.67
2018-09-21T09:34:47.327Z,5.43
2018-09-21T09:37:16.192Z,6.07
2018-09-21T09:39:45.087Z,5.13
2018-09-21T09:42:14.249Z,5.33
2018-09-21T09:44:43.476Z,5.67
2018-09-21T09:47:12.342Z,5.40
2018-09-21T09:49:41.293Z,5.50
2018-09-21T09:52:10.185Z,5.43
2018-09-21T09:54:39.471Z,5.13
2018-09-21T09:57:08.357Z,5.50
2018-09-21T09:59:37.395Z,5.20
2018-09-21T10:02:06.295Z,5.30
2018-09-21T10:04:35.220Z,5.63
2018-09-21T10:07:04.105Z,5.40
2018-09-21T10:09:33.013Z,5.10
2018-09-21T10:12:01.916Z,5.20
2018-09-21T10:14:31.100Z,5.23
2018-09-21T10:17:00.623Z,5.40
2018-09-21T10:19:30.137Z,5.00
2018-09-21T10:21:59.035Z,5.20
2018-09-21T10:24:27.967Z,5.03
2018-09-21T10:26:57.174Z,5.17
2018-09-21T10:29:26.511Z,5.43
2018-09-21T10:31:55.416Z,5.13
2018-09-21T10:34:24.368Z,5.07
2018-09-21T10:36:53.567Z,5.13
2018-09-21T10:39:22.595Z,5.50
2018-09-21T10:41:52.043Z,4.80
2018-09-21T10:44:21.068Z,5.00
2018-09-21T10:46:49.948Z,4.90
2018-09-21T10:49:19.114Z,5.53
2018-09-21T10:51:48.012Z,5.37
2018-09-21T10:54:17.573Z,4.77
2018-09-21T10:56:46.942Z,4.60
2018-09-21T10:59:16.051Z,4.93
2018-09-21T11:01:44.978Z,4.37
2018-09-21T11:04:13.895Z,5.50
2018-09-21T11:06:42.774Z,5.20
2018-09-21T11:09:12.191Z,4.90
2018-09-21T11:11:41.423Z,5.00
2018-09-21T11:14:10.533Z,5.10
2018-09-21T11:16:39.446Z,4.93
2018-09-21T11:19:08.328Z,5.37
2018-09-21T11:21:41.570Z,5.13
2018-09-21T11:24:10.498Z,5.17
2018-09-21T11:26:39.394Z,4.93
2018-09-21T11:29:08.499Z,5.07
2018-09-21T11:31:37.678Z,5.07
2018-09-21T11:34:06.647Z,4.70
2018-09-21T11:36:36.386Z,5.40
2018-09-21T11:39:07.906Z,4.87
2018-09-21T11:41:36.869Z,5.13
2018-09-21T11:44:05.996Z,5.03
2018-09-21T11:46:34.933Z,4.87
2018-09-21T11:49:03.926Z,5.10
2018-09-21T11:51:32.807Z,5.50
2018-09-21T11:54:01.712Z,5.33
2018-09-21T11:56:30.905Z,5.60
2018-09-21T11:58:59.840Z,4.90
2018-09-21T12:01:29.209Z,5.20
2018-09-21T12:03:58.140Z,4.90
2018-09-21T12:06:27.002Z,4.93
2018-09-21T12:08:56.400Z,5.83
2018-09-21T12:11:25.611Z,5.63
2018-09-21T12:13:54.835Z,5.47
2018-09-21T12:16:23.756Z,5.80
2018-09-21T12:18:52.686Z,5.50
2018-09-21T12:21:21.629Z,5.20
2018-09-21T12:23:50.565Z,4.90
2018-09-21T12:26:19.512Z,5.53
2018-09-21T12:28:49.031Z,5.90
2018-09-21T12:31:18.135Z,4.90
2018-09-21T12:33:47.087Z,4.90
2018-09-21T12:36:16.015Z,5.60
2018-09-21T12:38:44.987Z,5.20
2018-09-21T12:41:14.090Z,4.87
2018-09-21T12:43:43.077Z,5.40
2018-09-21T12:46:15.551Z,5.30
2018-09-21T12:48:44.783Z,5.63
2018-09-21T12:51:13.668Z,5.50
2018-09-21T12:53:42.601Z,4.90
2018-09-21T12:56:11.551Z,4.83
2018-09-21T12:58:40.535Z,4.80
2018-09-21T13:01:09.403Z,5.50
2018-09-21T13:03:38.301Z,5.40
2018-09-21T13:06:08.154Z,4.60
2018-09-21T13:08:37.038Z,5.00
2018-09-21T13:11:05.994Z,5.30
2018-09-21T13:13:34.914Z,5.37
2018-09-21T13:16:04.023Z,5.17
2018-09-21T13:18:33.134Z,6.50
2018-09-21T13:21:02.004Z,6.20
2018-09-21T13:23:31.059Z,6.20
2018-09-21T13:26:00.395Z,5.67
2018-09-21T13:28:29.404Z,4.73
2018-09-21T13:30:58.327Z,4.50
2018-09-21T13:33:27.243Z,5.23
2018-09-21T13:35:56.140Z,4.80
2018-09-21T13:38:25.564Z,4.27
2018-09-21T13:40:54.752Z,5.57
2018-09-21T13:43:23.708Z,4.60
2018-09-21T13:45:52.627Z,4.80
2018-09-21T13:48:21.649Z,4.50
2018-09-21T13:50:50.913Z,4.63
2018-09-21T13:53:19.812Z,4.60
2018-09-21T13:55:49.553Z,4.47
2018-09-21T13:58:18.714Z,4.47
2018-09-21T14:00:47.641Z,4.37
2018-09-21T14:03:16.573Z,4.20
2018-09-21T14:05:45.504Z,4.40
2018-09-21T14:08:14.791Z,4.77
2018-09-21T14:10:44.295Z,4.40
2018-09-21T14:13:13.472Z,4.80
2018-09-21T14:15:42.447Z,4.40
2018-09-21T14:18:11.363Z,3.73
2018-09-21T14:20:40.248Z,4.10
2018-09-21T14:23:09.368Z,4.20
2018-09-21T14:25:38.308Z,3.73
2018-09-21T14:28:07.240Z,4.20
2018-09-21T14:30:36.415Z,4.70
2018-09-21T14:33:06.298Z,4.00
2018-09-21T14:35:35.191Z,4.30
2018-09-21T14:38:04.253Z,4.30
2018-09-21T14:40:33.204Z,4.20
2018-09-21T14:43:02.756Z,4.20
2018-09-21T14:45:32.447Z,4.40
2018-09-21T14:48:01.622Z,4.43
2018-09-21T14:50:30.645Z,3.90
2018-09-21T14:52:59.518Z,4.30
2018-09-21T14:55:28.463Z,5.10
2018-09-21T14:57:57.404Z,4.37
2018-09-21T15:00:26.270Z,3.87
2018-09-21T15:02:55.184Z,4.50
2018-09-21T15:05:24.072Z,3.83
2018-09-21T15:07:53.175Z,4.00
2018-09-21T15:10:22.100Z,3.83
2018-09-21T15:12:50.983Z,3.53
2018-09-21T15:15:19.991Z,3.40
2018-09-21T15:17:48.899Z,3.63
2018-09-21T15:20:17.775Z,3.67
2018-09-21T15:22:47.231Z,3.20
2018-09-21T15:25:16.329Z,3.17
2018-09-21T15:27:45.236Z,3.23
2018-09-21T15:30:14.322Z,2.83
2018-09-21T15:32:43.204Z,2.90
2018-09-21T15:35:12.196Z,2.90
2018-09-21T15:37:41.314Z,2.33
2018-09-21T15:40:10.215Z,2.67
2018-09-21T15:42:39.133Z,3.30
2018-09-21T15:45:08.022Z,2.70
2018-09-21T15:47:36.953Z,2.67
2018-09-21T15:50:05.915Z,2.13
2018-09-21T15:52:34.835Z,2.27
2018-09-21T15:55:03.731Z,2.60
2018-09-21T15:57:32.930Z,2.20
2018-09-21T16:00:01.843Z,2.17
2018-09-21T16:02:30.707Z,2.10
2018-09-21T16:04:59.606Z,1.90
2018-09-21T16:07:28.475Z,2.40
2018-09-21T16:09:57.690Z,2.10
2018-09-21T16:12:26.719Z,2.00
2018-09-21T16:14:55.842Z,2.00
2018-09-21T16:17:24.775Z,1.90
2018-09-21T16:19:53.654Z,2.00
2018-09-21T16:22:22.515Z,1.67
2018-09-21T16:24:51.754Z,1.70
2018-09-21T16:27:20.944Z,1.77
2018-09-21T16:29:49.823Z,1.87
2018-09-21T16:32:19.002Z,1.87
2018-09-21T16:34:47.942Z,1.70
2018-09-21T16:37:16.820Z,1.43
2018-09-21T16:39:45.676Z,1.60
2018-09-21T16:42:14.707Z,1.87
2018-09-21T16:44:43.700Z,1.50
2018-09-21T16:47:12.559Z,1.90
2018-09-21T16:49:41.467Z,1.60
2018-09-21T16:52:10.391Z,1.50
2018-09-21T16:54:39.299Z,1.40
2018-09-21T16:57:08.434Z,1.47
2018-09-21T16:59:37.341Z,1.47
2018-09-21T17:02:06.234Z,2.70
2018-09-21T17:04:35.515Z,1.80
2018-09-21T17:07:04.704Z,1.93
2018-09-21T17:09:33.861Z,1.70
2018-09-21T17:12:02.736Z,1.50
2018-09-21T17:14:31.703Z,1.60
2018-09-21T17:17:00.583Z,1.53
2018-09-21T17:19:29.456Z,1.83
2018-09-21T17:21:58.708Z,2.07
2018-09-21T17:24:27.596Z,1.60
2018-09-21T17:26:56.527Z,1.93
2018-09-21T17:29:25.395Z,1.60
2018-09-21T17:31:54.354Z,1.50
2018-09-21T17:34:23.448Z,1.60
2018-09-21T17:36:52.840Z,1.50
2018-09-21T17:39:21.936Z,1.70
2018-09-21T17:41:50.816Z,2.00
2018-09-21T17:44:20.035Z,1.90
2018-09-21T17:46:49.223Z,2.00
2018-09-21T17:49:18.971Z,2.07
2018-09-21T17:51:48.674Z,1.87
2018-09-21T17:54:18.046Z,2.20
2018-09-21T17:56:47.499Z,2.20
2018-09-21T17:59:16.961Z,2.00
2018-09-21T18:01:46.298Z,1.93
2018-09-21T18:04:15.864Z,2.53
2018-09-21T18:06:46.811Z,2.07
2018-09-21T18:09:16.693Z,2.47
2018-09-21T18:11:46.334Z,2.33
2018-09-21T18:14:15.794Z,2.63
2018-09-21T18:16:45.383Z,2.00
2018-09-21T18:19:15.168Z,2.40
2018-09-21T18:21:44.780Z,2.10
2018-09-21T18:24:14.511Z,2.40
2018-09-21T18:26:43.927Z,2.37
2018-09-21T18:29:13.367Z,2.60
2018-09-21T18:31:43.252Z,2.10
2018-09-21T18:34:12.978Z,2.60
2018-09-21T18:36:42.352Z,2.10
2018-09-21T18:39:11.982Z,2.77
2018-09-21T18:41:41.494Z,2.63
2018-09-21T18:44:11.105Z,2.20
2018-09-21T18:46:40.477Z,2.57
2018-09-21T18:49:10.325Z,2.60
2018-09-21T18:51:39.673Z,2.67
2018-09-21T18:54:09.324Z,10.03
2018-09-21T18:56:38.800Z,5.90
2018-09-21T18:59:08.220Z,4.73
2018-09-21T19:01:37.749Z,4.90
2018-09-21T19:04:07.224Z,3.03
2018-09-21T19:06:36.899Z,2.87
2018-09-21T19:09:08.491Z,3.50
2018-09-21T19:11:37.979Z,3.60
2018-09-21T19:14:07.421Z,3.70
2018-09-21T19:16:36.455Z,3.40
2018-09-21T19:19:05.685Z,3.30
2018-09-21T19:21:35.891Z,3.50
2018-09-21T19:24:06.149Z,3.47
2018-09-21T19:26:35.541Z,3.70
2018-09-21T19:29:04.398Z,3.03
2018-09-21T19:31:33.316Z,3.30
2018-09-21T19:34:02.339Z,3.77
2018-09-21T19:36:31.289Z,2.70
2018-09-21T19:39:01.260Z,2.63
2018-09-21T19:41:30.407Z,3.07
2018-09-21T19:43:59.299Z,2.87
2018-09-21T19:46:28.286Z,3.00
2018-09-21T19:48:59.243Z,3.30
2018-09-21T19:51:30.319Z,2.70
2018-09-21T19:54:00.857Z,3.10
2018-09-21T19:56:30.771Z,3.00
2018-09-21T19:59:00.489Z,2.97
2018-09-21T20:01:29.641Z,2.50
2018-09-21T20:03:58.762Z,2.70
2018-09-21T20:06:29.083Z,2.60
2018-09-21T20:08:58.716Z,2.50
2018-09-21T20:11:28.778Z,2.73
2018-09-21T20:13:58.637Z,3.30
2018-09-21T20:16:28.045Z,3.10
2018-09-21T20:18:57.828Z,2.43
2018-09-21T20:21:27.363Z,3.00
2018-09-21T20:23:56.649Z,2.80
2018-09-21T20:26:26.474Z,2.90
2018-09-21T20:28:57.498Z,2.47
2018-09-21T20:31:32.651Z,2.70
2018-09-21T20:34:02.486Z,2.73
2018-09-21T20:36:31.566Z,2.80
2018-09-21T20:39:01.632Z,2.47
2018-09-21T20:41:31.492Z,2.50
2018-09-21T20:44:01.302Z,2.87
2018-09-21T20:46:31.964Z,2.70
2018-09-21T20:49:02.162Z,2.10
2018-09-21T20:51:31.848Z,2.63
2018-09-21T20:54:01.607Z,2.70
2018-09-21T20:56:30.950Z,2.80
2018-09-21T20:59:01.068Z,2.77
2018-09-21T21:01:30.890Z,2.83
2018-09-21T21:04:00.731Z,2.73
2018-09-21T21:06:30.341Z,2.40
2018-09-21T21:08:59.696Z,2.50
2018-09-21T21:11:30.388Z,2.30
2018-09-21T21:13:59.856Z,2.03
2018-09-21T21:16:30.958Z,2.13
2018-09-21T21:19:00.809Z,2.10
2018-09-21T21:21:29.926Z,1.90
2018-09-21T21:23:58.816Z,2.43
2018-09-21T21:26:27.687Z,2.10
2018-09-21T21:28:56.638Z,2.00
2018-09-21T21:31:25.527Z,2.10
2018-09-21T21:33:54.423Z,2.27
2018-09-21T21:36:23.351Z,2.20
2018-09-21T21:38:52.350Z,2.10
2018-09-21T21:41:22.115Z,2.10
2018-09-21T21:43:51.674Z,1.80
2018-09-21T21:46:20.777Z,1.90
2018-09-21T21:48:49.713Z,1.80
2018-09-21T21:51:20.127Z,1.90
2018-09-21T21:53:49.047Z,1.57
2018-09-21T21:56:18.035Z,1.90
2018-09-21T21:58:47.692Z,1.60
2018-09-21T22:01:22.620Z,1.50
2018-09-21T22:03:53.246Z,1.60
2018-09-21T22:06:22.360Z,1.60
2018-09-21T22:08:51.587Z,1.73
2018-09-21T22:11:26.257Z,1.33
2018-09-21T22:14:01.114Z,1.57
2018-09-21T22:16:30.086Z,1.87
2018-09-21T22:18:58.967Z,1.67
2018-09-21T22:21:27.940Z,1.30
2018-09-21T22:23:56.800Z,1.53
2018-09-21T22:26:26.762Z,2.00
2018-09-21T22:28:56.747Z,1.60
2018-09-21T22:31:25.654Z,1.60
2018-09-21T22:33:54.956Z,1.50
2018-09-21T22:36:24.259Z,1.70
2018-09-21T22:38:53.133Z,1.20
2018-09-21T22:41:22.021Z,1.40
2018-09-21T22:43:51.427Z,1.40
2018-09-21T22:46:20.307Z,1.10
2018-09-21T22:48:49.638Z,1.20
2018-09-21T22:51:19.147Z,1.50
2018-09-21T22:53:48.019Z,1.20
2018-09-21T22:56:17.188Z,1.40
2018-09-21T22:58:46.055Z,1.20
2018-09-21T23:01:14.937Z,2.13
2018-09-21T23:03:43.816Z,1.40
2018-09-21T23:06:12.990Z,1.30
2018-09-21T23:08:41.846Z,1.30
2018-09-21T23:11:10.710Z,1.30
2018-09-21T23:16:14.802Z,1.53
2018-09-21T23:18:44.050Z,1.10
2018-09-21T23:21:13.287Z,1.40
2018-09-21T23:23:42.197Z,1.27
2018-09-21T23:26:11.120Z,1.30
2018-09-21T23:28:40.005Z,1.20
2018-09-21T23:31:09.295Z,1.40
2018-09-21T23:33:38.161Z,1.70
2018-09-21T23:36:07.323Z,1.23
2018-09-21T23:38:36.210Z,1.40
2018-09-21T23:41:05.379Z,1.30
2018-09-21T23:43:34.328Z,1.50
2018-09-21T23:46:03.536Z,1.40
2018-09-21T23:48:32.423Z,1.20
2018-09-21T23:51:01.523Z,1.07
2018-09-21T23:53:30.416Z,1.17
2018-09-21T23:56:01.567Z,1.30
2018-09-21T23:58:30.455Z,1.07
